createdAt,value
2022-10-03T00:02:12.955Z,98117.03
2022-10-03T00:04:57.104Z,98113.38
2022-10-03T00:07:36.098Z,98106.03
2022-10-03T00:10:22.023Z,98105.84
2022-10-03T00:13:06.776Z,98107.53
2022-10-03T00:15:49.995Z,98110.19
2022-10-03T00:18:34.465Z,98110.84
2022-10-03T00:21:20.281Z,98106.50
2022-10-03T00:24:02.288Z,98097.75
2022-10-03T00:26:46.750Z,98098.78
2022-10-03T00:29:43.453Z,98089.81
2022-10-03T00:32:33.021Z,98092.94
2022-10-03T00:35:12.264Z,98090.28
2022-10-03T00:38:01.107Z,98083.44
2022-10-03T00:40:49.735Z,98078.72
2022-10-03T00:43:44.356Z,98086.63
2022-10-03T00:46:38.682Z,98086.72
2022-10-03T00:49:17.693Z,98083.84
2022-10-03T00:51:56.430Z,98069.75
2022-10-03T00:54:47.957Z,98067.25
2022-10-03T00:57:22.001Z,98065.09
2022-10-03T00:59:48.708Z,98057.28
2022-10-03T01:02:30.381Z,98056.88
2022-10-03T01:05:45.390Z,98053.09
2022-10-03T01:08:37.993Z,98048.31
2022-10-03T01:11:49.532Z,98054.44
2022-10-03T01:14:32.373Z,98055.19
2022-10-03T01:17:10.908Z,98043.59
2022-10-03T01:19:56.144Z,98049.91
2022-10-03T01:22:47.508Z,98048.97
2022-10-03T01:25:17.050Z,98046.97
2022-10-03T01:28:37.533Z,98046.16
2022-10-03T01:31:10.287Z,98043.91
2022-10-03T01:33:42.160Z,98046.25
2022-10-03T01:36:27.451Z,98047.75
2022-10-03T01:39:06.236Z,98042.19
2022-10-03T01:41:48.175Z,98042.00
2022-10-03T01:44:30.448Z,98045.75
2022-10-03T01:47:06.294Z,98045.94
2022-10-03T01:49:35.971Z,98046.81
2022-10-03T01:52:11.471Z,98052.09
2022-10-03T01:54:44.158Z,98042.47
2022-10-03T01:57:25.916Z,98041.34
2022-10-03T02:00:11.141Z,98040.09
2022-10-03T02:02:45.592Z,98040.66
2022-10-03T02:05:17.778Z,98040.00
2022-10-03T02:08:05.871Z,98040.75
2022-10-03T02:10:48.255Z,98039.34
2022-10-03T02:13:23.336Z,98038.78
2022-10-03T02:15:54.548Z,98034.06
2022-10-03T02:18:48.883Z,98025.41
2022-10-03T02:21:27.072Z,98037.09
2022-10-03T02:24:29.063Z,98037.00
2022-10-03T02:27:01.925Z,98039.44
2022-10-03T02:30:00.613Z,98042.19
2022-10-03T02:32:46.824Z,98039.16
2022-10-03T02:35:39.552Z,98038.50
2022-10-03T02:38:26.558Z,98027.09
2022-10-03T02:41:02.712Z,98026.06
2022-10-03T02:44:27.669Z,98033.44
2022-10-03T02:47:19.455Z,98036.81
2022-10-03T02:50:04.700Z,98036.91
2022-10-03T02:52:49.506Z,98034.25
2022-10-03T02:55:36.539Z,98025.41
2022-10-03T02:58:06.040Z,98031.63
2022-10-03T03:00:47.341Z,98032.38
2022-10-03T03:03:42.016Z,98034.06
2022-10-03T03:06:29.320Z,98029.63
2022-10-03T03:09:23.497Z,98034.72
2022-10-03T03:12:08.200Z,98038.91
2022-10-03T03:15:10.317Z,98033.72
2022-10-03T03:17:36.985Z,98031.09
2022-10-03T03:20:41.588Z,98032.66
2022-10-03T03:23:31.544Z,98020.59
2022-10-03T03:26:19.848Z,98020.44
2022-10-03T03:29:20.794Z,98022.88
2022-10-03T03:32:21.391Z,98013.19
2022-10-03T03:35:06.963Z,98016.84
2022-10-03T03:37:45.977Z,98011.28
2022-10-03T03:40:51.031Z,98009.59
2022-10-03T03:43:23.745Z,98009.41
2022-10-03T03:46:06.896Z,98002.03
2022-10-03T03:49:01.746Z,98007.88
2022-10-03T03:52:03.721Z,98003.03
2022-10-03T03:54:55.162Z,97998.59
2022-10-03T03:57:34.063Z,97999.25
2022-10-03T04:00:03.872Z,97997.25
2022-10-03T04:02:38.354Z,97992.63
2022-10-03T04:05:38.169Z,97997.50
2022-10-03T04:08:23.432Z,98005.22
2022-10-03T04:11:08.154Z,97986.56
2022-10-03T04:13:56.518Z,97990.66
2022-10-03T04:17:20.544Z,97983.50
2022-10-03T04:20:14.839Z,97990.25
2022-10-03T04:23:00.537Z,97984.69
2022-10-03T04:26:08.289Z,97983.53
2022-10-03T04:29:17.194Z,97981.63
2022-10-03T04:31:49.828Z,97967.28
2022-10-03T04:34:25.868Z,97968.75
2022-10-03T04:37:06.890Z,97972.69
2022-10-03T04:40:07.106Z,97964.34
2022-10-03T04:43:10.479Z,97968.25
2022-10-03T04:45:40.231Z,97957.28
2022-10-03T04:48:16.719Z,97955.69
2022-10-03T04:51:31.288Z,97952.94
2022-10-03T04:54:38.811Z,97957.38
2022-10-03T04:57:22.933Z,97943.19
2022-10-03T04:59:59.258Z,97952.16
2022-10-03T05:02:45.922Z,97951.16
2022-10-03T05:05:24.852Z,97951.16
2022-10-03T05:07:51.483Z,97948.56
2022-10-03T05:10:24.344Z,97958.34
2022-10-03T05:12:59.778Z,97960.72
2022-10-03T05:15:33.890Z,97953.53
2022-10-03T05:18:28.841Z,97963.09
2022-10-03T05:21:11.016Z,97949.50
2022-10-03T05:24:03.396Z,97963.72
2022-10-03T05:26:46.076Z,97960.97
2022-10-03T05:29:37.601Z,97949.81
2022-10-03T05:32:22.784Z,97955.84
2022-10-03T05:35:21.619Z,97964.38
2022-10-03T05:38:06.104Z,97967.13
2022-10-03T05:40:36.937Z,97957.16
2022-10-03T05:43:11.326Z,97964.75
2022-10-03T05:45:43.815Z,97969.22
2022-10-03T05:48:28.938Z,97945.88
2022-10-03T05:51:13.226Z,97959.97
2022-10-03T05:53:42.668Z,97964.94
2022-10-03T05:56:28.397Z,97976.56
2022-10-03T05:59:07.352Z,97973.84
2022-10-03T06:02:33.024Z,97974.06
2022-10-03T06:05:32.995Z,97966.22
2022-10-03T06:08:15.950Z,97974.53
2022-10-03T06:11:01.291Z,97983.09
2022-10-03T06:13:55.741Z,97982.13
2022-10-03T06:16:30.948Z,97979.00
2022-10-03T06:19:06.895Z,97984.88
2022-10-03T06:22:00.797Z,97990.53
2022-10-03T06:24:49.416Z,97989.13
2022-10-03T06:27:54.295Z,97993.19
2022-10-03T06:30:22.473Z,98000.81
2022-10-03T06:33:07.256Z,98003.69
2022-10-03T06:35:52.560Z,97998.94
2022-10-03T06:38:37.671Z,97997.66
2022-10-03T06:41:48.973Z,98002.59
2022-10-03T06:44:41.223Z,98004.81
2022-10-03T06:47:27.168Z,98012.63
2022-10-03T06:50:27.496Z,98019.94
2022-10-03T06:53:13.127Z,98012.22
2022-10-03T06:56:14.888Z,98021.53
2022-10-03T06:58:47.648Z,98004.63
2022-10-03T07:01:44.608Z,98014.50
2022-10-03T07:04:48.845Z,98011.38
2022-10-03T07:07:21.866Z,98010.16
2022-10-03T07:10:10.560Z,98007.38
2022-10-03T07:13:10.807Z,98012.16
2022-10-03T07:18:55.064Z,98016.03
2022-10-03T07:21:31.322Z,98016.09
2022-10-03T07:24:25.849Z,98011.31
2022-10-03T07:27:28.124Z,98012.31
2022-10-03T07:30:17.271Z,97993.38
2022-10-03T07:33:11.663Z,98007.16
2022-10-03T07:36:00.708Z,98003.06
2022-10-03T07:38:58.075Z,97996.94
2022-10-03T07:41:31.737Z,97987.94
2022-10-03T07:44:15.799Z,97991.72
2022-10-03T07:46:57.523Z,97991.72
2022-10-03T07:49:42.919Z,97990.47
2022-10-03T07:52:47.400Z,97991.19
2022-10-03T07:55:28.508Z,97984.97
2022-10-03T07:58:13.590Z,97990.41
2022-10-03T08:00:58.924Z,97991.13
2022-10-03T08:03:28.780Z,98004.22
2022-10-03T08:06:33.818Z,97994.56
2022-10-03T08:09:28.308Z,97996.84
2022-10-03T08:12:28.898Z,98013.38
2022-10-03T08:15:22.367Z,97993.94
2022-10-03T08:17:55.379Z,98002.53
2022-10-03T08:20:34.252Z,98001.56
2022-10-03T08:23:24.277Z,98015.44
2022-10-03T08:26:36.097Z,98008.25
2022-10-03T08:29:30.163Z,98016.72
2022-10-03T08:32:21.391Z,98024.66
2022-10-03T08:35:06.624Z,98013.66
2022-10-03T08:37:45.242Z,98009.88
2022-10-03T08:40:34.118Z,98025.84
2022-10-03T08:43:00.794Z,98023.38
2022-10-03T08:45:33.420Z,98024.94
2022-10-03T08:48:09.434Z,98026.41
2022-10-03T08:50:59.512Z,98015.72
2022-10-03T08:53:46.459Z,98015.59
2022-10-03T08:56:33.200Z,98014.47
2022-10-03T08:59:24.740Z,98021.31
2022-10-03T09:02:14.987Z,98038.56
2022-10-03T09:05:00.228Z,98041.59
2022-10-03T09:19:13.070Z,98037.50
2022-10-03T09:21:45.847Z,98027.25
2022-10-03T09:24:31.386Z,98031.44
2022-10-03T09:27:24.166Z,98016.66
2022-10-03T09:30:03.143Z,98018.94
2022-10-03T09:32:47.431Z,98023.44
2022-10-03T09:35:52.044Z,98016.66
2022-10-03T09:38:37.085Z,98026.72
2022-10-03T09:41:22.553Z,98022.22
2022-10-03T09:44:08.134Z,98015.53
2022-10-03T09:47:13.646Z,98022.16
2022-10-03T09:50:09.407Z,98032.38
2022-10-03T09:52:51.343Z,98018.13
2022-10-03T09:55:48.849Z,98029.34
2022-10-03T09:58:41.040Z,98032.44
2022-10-03T10:01:31.106Z,98020.31
2022-10-03T10:04:32.658Z,98031.44
2022-10-03T10:07:29.293Z,98032.16
2022-10-03T10:10:33.393Z,98022.72
2022-10-03T10:13:12.059Z,98035.53
2022-10-03T10:16:01.165Z,98039.31
2022-10-03T10:18:36.624Z,98034.38
2022-10-03T10:21:46.616Z,98029.63
2022-10-03T10:24:36.512Z,98041.41
2022-10-03T10:27:21.677Z,98055.72
2022-10-03T10:30:09.997Z,98035.53
2022-10-03T10:33:10.468Z,98036.09
2022-10-03T10:36:14.704Z,98027.66
2022-10-03T10:38:53.896Z,98055.59
2022-10-03T10:42:08.300Z,98050.66
2022-10-03T10:44:53.938Z,98049.16
2022-10-03T10:47:20.655Z,98055.56
2022-10-03T10:49:53.510Z,98047.47
2022-10-03T10:52:38.528Z,98057.63
2022-10-03T10:55:46.162Z,98054.03
2022-10-03T10:58:50.460Z,98050.59
2022-10-03T11:01:46.114Z,98053.84
2022-10-03T11:04:31.219Z,98057.25
2022-10-03T11:07:53.833Z,98060.09
2022-10-03T11:10:39.277Z,98050.19
2022-10-03T11:13:43.562Z,98046.66
2022-10-03T11:16:25.505Z,98057.25
2022-10-03T11:19:13.398Z,98052.38
2022-10-03T11:21:52.236Z,98057.78
2022-10-03T11:24:37.482Z,98051.72
2022-10-03T11:27:16.567Z,98043.72
2022-10-03T11:30:14.247Z,98050.09
2022-10-03T11:33:03.023Z,98052.97
2022-10-03T11:35:52.269Z,98056.28
2022-10-03T11:38:34.983Z,98050.59
2022-10-03T11:41:13.732Z,98035.06
2022-10-03T11:44:31.229Z,98059.50
2022-10-03T11:47:26.017Z,98041.78
2022-10-03T11:50:19.025Z,98042.03
2022-10-03T11:53:19.709Z,98038.94
2022-10-03T11:56:05.006Z,98037.97
2022-10-03T11:59:14.042Z,98035.81
2022-10-03T12:01:44.026Z,98047.72
2022-10-03T12:04:34.662Z,98053.53
2022-10-03T12:07:39.574Z,98081.72
2022-10-03T12:10:29.123Z,98058.38
2022-10-03T12:12:57.873Z,98077.00
2022-10-03T12:15:30.436Z,98070.88
2022-10-03T12:18:12.165Z,98070.34
2022-10-03T12:20:48.868Z,98079.94
2022-10-03T12:23:18.484Z,98071.44
2022-10-03T12:25:49.312Z,98074.53
2022-10-03T12:28:41.528Z,98070.31
2022-10-03T12:31:38.258Z,98064.53
2022-10-03T12:34:20.277Z,98072.75
2022-10-03T12:37:10.924Z,98068.47
2022-10-03T12:40:04.240Z,98064.84
2022-10-03T12:42:37.467Z,98061.13
2022-10-03T12:45:22.201Z,98063.25
2022-10-03T12:47:55.728Z,98063.88
2022-10-03T12:50:25.745Z,98067.06
2022-10-03T12:53:24.134Z,98061.41
2022-10-03T12:56:07.378Z,98068.47
2022-10-03T12:58:50.721Z,98078.31
2022-10-03T13:01:44.153Z,98071.50
2022-10-03T13:04:34.742Z,98073.66
2022-10-03T13:07:20.372Z,98060.50
2022-10-03T13:09:59.145Z,98059.91
2022-10-03T13:12:39.271Z,98061.41
2022-10-03T13:15:33.952Z,98058.22
2022-10-03T13:18:20.751Z,98056.34
2022-10-03T13:21:21.371Z,98058.50
2022-10-03T13:24:09.552Z,98058.03
2022-10-03T13:26:50.946Z,98049.09
2022-10-03T13:29:39.001Z,98050.34
2022-10-03T13:32:18.074Z,98046.03
2022-10-03T13:35:38.685Z,98051.63
2022-10-03T13:38:06.250Z,98054.19
2022-10-03T13:40:37.747Z,98044.34
2022-10-03T13:43:13.727Z,98043.94
2022-10-03T13:45:44.550Z,98044.38
2022-10-03T13:48:21.160Z,98043.16
2022-10-03T13:50:58.651Z,98036.97
2022-10-03T13:53:58.876Z,98033.03
2022-10-03T13:56:59.763Z,98038.66
2022-10-03T13:59:26.498Z,98030.13
2022-10-03T14:02:22.469Z,98033.53
2022-10-03T14:04:56.950Z,98034.78
2022-10-03T14:07:29.591Z,98034.50
2022-10-03T14:10:22.186Z,98027.03
2022-10-03T14:13:10.741Z,98024.50
2022-10-03T14:15:50.038Z,98013.13
2022-10-03T14:18:16.738Z,98008.06
2022-10-03T14:20:56.446Z,98006.66
2022-10-03T14:23:35.392Z,98013.78
2022-10-03T14:26:12.076Z,98016.47
2022-10-03T14:28:41.888Z,98005.50
2022-10-03T14:31:17.738Z,98011.63
2022-10-03T14:33:59.149Z,98008.69
2022-10-03T14:36:49.965Z,98010.53
2022-10-03T14:39:36.426Z,98014.50
2022-10-03T14:42:18.494Z,98006.59
2022-10-03T14:44:58.516Z,98023.53
2022-10-03T14:47:27.202Z,98019.34
2022-10-03T14:49:59.455Z,98016.00
2022-10-03T14:52:29.384Z,98017.50
2022-10-03T14:55:00.178Z,98019.31
2022-10-03T14:57:59.051Z,98019.66
2022-10-03T15:00:51.174Z,98025.28
2022-10-03T15:03:17.956Z,98018.19
2022-10-03T15:05:56.774Z,98020.84
2022-10-03T15:08:31.275Z,98016.47
2022-10-03T15:10:59.140Z,98019.38
2022-10-03T15:13:29.048Z,98015.06
2022-10-03T15:15:56.866Z,98010.50
2022-10-03T15:18:25.104Z,98013.91
2022-10-03T15:20:57.529Z,98012.31
2022-10-03T15:23:34.010Z,98012.94
2022-10-03T15:26:02.088Z,98012.59
2022-10-03T15:28:42.741Z,98025.25
2022-10-03T15:31:30.205Z,98017.28
2022-10-03T15:33:59.208Z,98013.31
2022-10-03T15:36:30.852Z,98017.91
2022-10-03T15:39:06.570Z,98027.88
2022-10-03T15:41:48.289Z,98030.28
2022-10-03T15:44:19.569Z,98040.09
2022-10-03T15:46:56.061Z,98051.94
2022-10-03T15:49:41.149Z,98043.16
2022-10-03T15:52:32.753Z,98045.59
2022-10-03T15:55:11.956Z,98053.72
2022-10-03T15:57:47.132Z,98058.25
2022-10-03T16:00:36.148Z,98060.88
2022-10-03T16:03:22.834Z,98058.84
2022-10-03T16:06:08.782Z,98057.22
2022-10-03T16:09:02.261Z,98048.25
2022-10-03T16:11:40.147Z,98047.03
2022-10-03T16:14:25.678Z,98039.16
2022-10-03T16:16:56.735Z,98040.91
2022-10-03T16:19:31.673Z,98035.31
2022-10-03T16:22:13.778Z,98029.63
2022-10-03T16:24:52.984Z,98024.91
2022-10-03T16:27:26.245Z,98034.97
2022-10-03T16:29:59.158Z,98028.81
2022-10-03T16:32:28.362Z,98032.75
2022-10-03T16:35:00.809Z,98035.66
2022-10-03T16:37:30.007Z,98031.28
2022-10-03T16:40:03.055Z,98020.28
2022-10-03T16:42:42.054Z,98020.94
2022-10-03T16:45:29.194Z,98031.63
2022-10-03T16:48:18.389Z,98016.59
2022-10-03T16:50:52.996Z,98025.59
2022-10-03T16:53:22.367Z,98020.94
2022-10-03T16:55:57.880Z,98024.84
2022-10-03T16:58:30.963Z,98028.88
2022-10-03T17:01:25.389Z,98027.72
2022-10-03T17:04:10.881Z,98028.22
2022-10-03T17:06:39.947Z,98027.00
2022-10-03T17:09:46.184Z,98030.19
2022-10-03T17:12:18.096Z,98024.03
2022-10-03T17:14:45.375Z,98021.38
2022-10-03T17:17:32.496Z,98028.38
2022-10-03T17:20:05.531Z,98021.50
2022-10-03T17:22:44.564Z,98021.84
2022-10-03T17:25:18.157Z,98017.78
2022-10-03T17:27:50.290Z,98022.09
2022-10-03T17:30:37.369Z,98028.16
2022-10-03T17:33:35.034Z,98040.41
2022-10-03T17:39:03.627Z,98037.13
2022-10-03T17:41:36.216Z,98100.13
2022-10-03T17:44:47.609Z,98121.19
2022-10-03T17:47:40.355Z,98125.75
2022-10-03T17:50:15.960Z,98126.13
2022-10-03T17:52:46.550Z,98115.72
2022-10-03T17:55:22.134Z,98113.91
2022-10-03T17:57:55.145Z,98126.75
2022-10-03T18:00:38.131Z,98144.59
2022-10-03T18:03:10.437Z,98137.81
2022-10-03T18:05:43.752Z,98151.03
2022-10-03T18:08:19.035Z,98150.13
2022-10-03T18:10:54.928Z,98148.69
2022-10-03T18:13:47.536Z,98164.44
2022-10-03T18:16:49.798Z,98174.34
2022-10-03T18:19:23.337Z,98172.09
2022-10-03T18:22:05.321Z,98178.59
2022-10-03T18:24:40.521Z,98186.50
2022-10-03T18:27:16.278Z,98190.22
2022-10-03T18:30:06.069Z,98196.66
2022-10-03T18:32:39.874Z,98196.91
2022-10-03T18:35:34.577Z,98202.19
2022-10-03T18:38:04.181Z,98204.66
2022-10-03T18:40:47.555Z,98209.06
2022-10-03T18:43:31.895Z,98209.84
2022-10-03T18:46:21.761Z,98223.19
2022-10-03T18:49:15.696Z,98226.88
2022-10-03T18:51:47.145Z,98237.13
2022-10-03T18:54:21.191Z,98240.53
2022-10-03T18:57:04.185Z,98237.06
2022-10-03T18:59:43.154Z,98246.16
2022-10-03T19:02:22.250Z,98241.38
2022-10-03T19:05:05.270Z,98249.72
2022-10-03T19:07:42.992Z,98249.50
2022-10-03T19:10:27.859Z,98264.53
2022-10-03T19:13:17.856Z,98261.41
2022-10-03T19:16:05.089Z,98269.34
2022-10-03T19:19:05.925Z,98272.69
2022-10-03T19:21:38.330Z,98275.00
2022-10-03T19:24:13.308Z,98272.44
2022-10-03T19:26:47.846Z,98283.81
2022-10-03T19:29:23.572Z,98284.16
2022-10-03T19:31:50.397Z,98291.28
2022-10-03T19:34:38.456Z,98285.19
2022-10-03T19:37:46.126Z,98298.16
2022-10-03T19:40:42.379Z,98300.63
2022-10-03T19:43:40.599Z,98301.22
2022-10-03T19:46:16.428Z,98320.50
2022-10-03T19:48:50.984Z,98313.00
2022-10-03T19:51:25.579Z,98321.13
2022-10-03T19:53:54.947Z,98306.41
2022-10-03T19:56:25.084Z,98320.50
2022-10-03T19:59:02.902Z,98325.59
2022-10-03T20:01:48.503Z,98323.88
2022-10-03T20:04:20.091Z,98320.41
2022-10-03T20:06:50.026Z,98323.88
2022-10-03T20:10:03.127Z,98334.50
2022-10-03T20:12:36.888Z,98328.31
2022-10-03T20:15:23.358Z,98332.66
2022-10-03T20:17:55.541Z,98328.47
2022-10-03T20:20:24.574Z,98332.81
2022-10-03T20:22:54.825Z,98341.63
2022-10-03T20:25:33.506Z,98338.00
2022-10-03T20:28:05.747Z,98329.38
2022-10-03T20:30:48.608Z,98339.69
2022-10-03T20:33:27.641Z,98338.00
2022-10-03T20:36:00.657Z,98337.47
2022-10-03T20:38:45.635Z,98320.56
2022-10-03T20:41:27.379Z,98330.66
2022-10-03T20:44:04.497Z,98336.59
2022-10-03T20:46:51.111Z,98337.56
2022-10-03T20:49:27.882Z,98340.44
2022-10-03T20:51:54.679Z,98342.03
2022-10-03T20:54:24.659Z,98341.28
2022-10-03T20:57:17.890Z,98347.22
2022-10-03T21:00:11.585Z,98339.81
2022-10-03T21:02:42.017Z,98340.00
2022-10-03T21:05:23.990Z,98346.63
2022-10-03T21:07:57.077Z,98348.25
2022-10-03T21:10:36.448Z,98352.63
2022-10-03T21:13:14.470Z,98356.75
2022-10-03T21:15:59.147Z,98346.47
2022-10-03T21:18:41.000Z,98352.63
2022-10-03T21:21:10.645Z,98349.16
2022-10-03T21:24:07.197Z,98354.94
2022-10-03T21:26:42.293Z,98353.88
2022-10-03T21:29:24.318Z,98349.38
2022-10-03T21:32:01.048Z,98349.38
2022-10-03T21:34:43.871Z,98352.06
2022-10-03T21:37:17.049Z,98355.56
2022-10-03T21:40:16.244Z,98350.13
2022-10-03T21:43:16.655Z,98349.38
2022-10-03T21:46:14.097Z,98357.34
2022-10-03T21:49:15.054Z,98357.19
2022-10-03T21:51:48.605Z,98354.56
2022-10-03T21:54:33.258Z,98359.75
2022-10-03T21:57:18.924Z,98360.66
2022-10-03T22:00:27.342Z,98364.69
2022-10-03T22:03:19.356Z,98359.56
2022-10-03T22:05:52.168Z,98371.53
2022-10-03T22:08:26.902Z,98372.59
2022-10-03T22:11:31.222Z,98374.63
2022-10-03T22:14:29.735Z,98378.84
2022-10-03T22:17:02.527Z,98379.88
2022-10-03T22:19:55.268Z,98385.47
2022-10-03T22:22:24.735Z,98385.63
2022-10-03T22:25:28.578Z,98400.66
2022-10-03T22:28:13.285Z,98399.41
2022-10-03T22:30:49.944Z,98397.09
2022-10-03T22:33:20.872Z,98400.19
2022-10-03T22:35:59.739Z,98391.91
2022-10-03T22:38:29.078Z,98391.06
2022-10-03T22:41:00.393Z,98392.94
2022-10-03T22:43:28.775Z,98389.34
2022-10-03T22:45:58.055Z,98396.19
2022-10-03T22:48:29.625Z,98404.00
2022-10-03T22:50:57.337Z,98401.44
2022-10-03T22:53:31.481Z,98400.53
2022-10-03T22:55:59.841Z,98405.00
2022-10-03T22:58:29.570Z,98415.53
2022-10-03T23:00:59.650Z,98406.56
2022-10-03T23:03:32.249Z,98411.97
2022-10-03T23:06:36.512Z,98408.72
2022-10-03T23:09:31.627Z,98416.72
2022-10-03T23:11:58.641Z,98410.56
2022-10-03T23:14:38.505Z,98401.16
2022-10-03T23:17:21.921Z,98417.63
2022-10-03T23:20:18.206Z,98409.72
2022-10-03T23:22:52.295Z,98415.06
2022-10-03T23:25:28.395Z,98417.63
2022-10-03T23:28:08.992Z,98427.91
2022-10-03T23:30:35.756Z,98415.75
2022-10-03T23:33:02.620Z,98420.25
2022-10-03T23:35:42.772Z,98427.69
2022-10-03T23:38:38.986Z,98427.44
2022-10-03T23:41:10.433Z,98425.81
2022-10-03T23:43:41.860Z,98419.47
2022-10-03T23:46:15.699Z,98426.56
2022-10-03T23:49:08.270Z,98421.00
2022-10-03T23:51:36.526Z,98427.16
2022-10-03T23:54:06.262Z,98418.59
2022-10-03T23:56:45.871Z,98425.81
2022-10-03T23:59:15.643Z,98422.88
